createdAt,value
2022-09-21T00:02:55.006Z,33.84
2022-09-21T00:08:02.339Z,33.98
2022-09-21T00:13:09.394Z,34.09
2022-09-21T00:18:16.604Z,34.23
2022-09-21T00:23:24.000Z,34.33
2022-09-21T00:28:31.018Z,34.38
2022-09-21T00:33:38.182Z,34.45
2022-09-21T00:38:45.451Z,34.43
2022-09-21T00:43:52.621Z,34.45
2022-09-21T00:48:59.868Z,34.50
2022-09-21T00:54:07.174Z,34.56
2022-09-21T00:59:14.346Z,34.66
2022-09-21T01:04:21.550Z,34.63
2022-09-21T01:09:28.753Z,34.60
2022-09-21T01:14:36.039Z,34.55
2022-09-21T01:19:43.229Z,34.48
2022-09-21T01:24:50.513Z,34.46
2022-09-21T01:29:57.674Z,34.52
2022-09-21T01:35:04.921Z,34.54
2022-09-21T01:40:12.180Z,34.59
2022-09-21T01:45:19.339Z,34.65
2022-09-21T01:50:26.596Z,34.77
2022-09-21T01:55:33.913Z,34.74
2022-09-21T02:00:41.140Z,34.73
2022-09-21T02:05:48.307Z,34.69
2022-09-21T02:10:55.542Z,34.60
2022-09-21T02:16:02.798Z,34.58
2022-09-21T02:21:09.876Z,34.52
2022-09-21T02:26:17.149Z,34.52
2022-09-21T02:31:24.422Z,34.51
2022-09-21T02:36:31.651Z,34.43
2022-09-21T02:41:38.936Z,34.31
2022-09-21T02:46:46.182Z,34.28
2022-09-21T02:51:53.368Z,34.20
2022-09-21T02:57:00.655Z,34.11
2022-09-21T03:02:07.803Z,34.11
2022-09-21T03:07:14.989Z,34.28
2022-09-21T03:12:22.214Z,34.33
2022-09-21T03:17:29.450Z,34.45
2022-09-21T03:22:36.638Z,34.42
2022-09-21T03:27:43.908Z,34.34
2022-09-21T03:32:51.222Z,34.31
2022-09-21T03:37:58.406Z,34.25
2022-09-21T03:43:05.678Z,34.19
2022-09-21T03:48:12.841Z,34.17
2022-09-21T03:53:20.061Z,34.05
2022-09-21T03:58:27.236Z,34.08
2022-09-21T04:03:34.452Z,34.03
2022-09-21T04:08:43.679Z,33.85
2022-09-21T04:13:48.815Z,33.82
2022-09-21T04:18:56.045Z,33.63
2022-09-21T04:24:03.213Z,33.54
2022-09-21T04:29:10.636Z,33.71
2022-09-21T04:34:17.638Z,33.78
2022-09-21T04:39:24.911Z,33.93
2022-09-21T04:44:32.222Z,33.96
2022-09-21T04:49:39.332Z,33.90
2022-09-21T04:54:46.593Z,33.80
2022-09-21T04:59:53.890Z,33.78
2022-09-21T05:05:01.119Z,33.70
2022-09-21T05:10:08.301Z,33.64
2022-09-21T05:15:15.528Z,33.69
2022-09-21T05:20:22.751Z,33.65
2022-09-21T05:25:29.932Z,33.50
2022-09-21T05:30:37.184Z,33.44
2022-09-21T05:35:44.377Z,33.44
2022-09-21T05:40:51.641Z,33.37
2022-09-21T05:45:58.955Z,33.30
2022-09-21T05:51:06.165Z,33.35
2022-09-21T05:56:13.352Z,33.47
2022-09-21T06:01:20.617Z,33.53
2022-09-21T06:06:27.860Z,33.48
2022-09-21T06:11:35.080Z,33.49
2022-09-21T06:16:42.422Z,33.41
2022-09-21T06:21:49.501Z,33.41
2022-09-21T06:26:56.760Z,33.45
2022-09-21T06:32:03.966Z,33.46
2022-09-21T06:37:11.245Z,33.43
2022-09-21T06:42:18.455Z,33.52
2022-09-21T06:47:25.773Z,33.55
2022-09-21T06:52:32.899Z,33.57
2022-09-21T06:57:40.135Z,33.61
2022-09-21T07:02:47.327Z,33.64
2022-09-21T07:07:54.477Z,33.69
2022-09-21T07:13:01.717Z,33.82
2022-09-21T07:18:08.951Z,33.85
2022-09-21T07:23:16.096Z,33.78
2022-09-21T07:28:23.296Z,33.75
2022-09-21T07:33:35.228Z,33.60
2022-09-21T07:38:37.675Z,33.62
2022-09-21T07:43:44.818Z,33.64
2022-09-21T07:48:52.069Z,33.62
2022-09-21T07:53:59.210Z,33.62
2022-09-21T07:59:06.501Z,33.57
2022-09-21T08:04:13.698Z,33.47
2022-09-21T08:09:20.864Z,33.23
2022-09-21T08:14:28.088Z,33.60
2022-09-21T08:19:35.321Z,33.64
2022-09-21T08:24:42.468Z,33.86
2022-09-21T08:29:49.730Z,34.68
2022-09-21T08:34:56.977Z,34.85
2022-09-21T08:40:04.268Z,35.99
2022-09-21T08:45:11.461Z,36.24
2022-09-21T08:50:18.813Z,36.32
2022-09-21T08:55:26.045Z,36.21
2022-09-21T09:00:33.399Z,35.97
2022-09-21T09:05:40.585Z,35.67
2022-09-21T09:10:47.954Z,35.37
2022-09-21T09:15:55.231Z,35.17
2022-09-21T09:21:02.394Z,34.78
2022-09-21T09:26:09.549Z,34.97
2022-09-21T09:31:16.812Z,34.93
2022-09-21T09:36:46.647Z,35.07
2022-09-21T09:41:31.274Z,34.93
2022-09-21T09:46:38.596Z,33.98
2022-09-21T09:51:45.956Z,33.76
2022-09-21T09:56:53.163Z,33.77
2022-09-21T10:02:00.397Z,33.65
2022-09-21T10:07:07.733Z,33.69
2022-09-21T10:12:14.806Z,33.41
2022-09-21T10:17:22.002Z,33.45
2022-09-21T10:22:29.188Z,33.70
2022-09-21T10:27:36.420Z,33.80
2022-09-21T10:32:43.683Z,33.64
2022-09-21T10:37:56.698Z,33.95
2022-09-21T10:43:03.828Z,33.72
2022-09-21T10:48:11.104Z,33.01
2022-09-21T10:53:18.299Z,33.16
2022-09-21T10:58:25.440Z,33.24
2022-09-21T11:03:32.607Z,33.53
2022-09-21T11:08:39.877Z,33.80
2022-09-21T11:13:47.007Z,33.64
2022-09-21T11:18:54.215Z,33.71
2022-09-21T11:24:01.430Z,33.38
2022-09-21T11:29:08.569Z,33.51
2022-09-21T11:34:15.848Z,33.49
2022-09-21T11:39:23.166Z,33.44
2022-09-21T11:44:30.362Z,32.93
2022-09-21T11:49:37.628Z,32.25
2022-09-21T11:54:44.871Z,31.31
2022-09-21T11:59:52.098Z,31.43
2022-09-21T12:04:59.427Z,31.88
2022-09-21T12:10:10.285Z,32.31
2022-09-21T12:15:13.948Z,32.01
2022-09-21T12:20:21.492Z,32.38
2022-09-21T12:25:28.842Z,31.95
2022-09-21T12:30:36.062Z,31.07
2022-09-21T12:35:43.408Z,30.23
2022-09-21T12:40:50.560Z,30.37
2022-09-21T12:45:57.791Z,30.89
2022-09-21T12:51:06.261Z,30.40
2022-09-21T12:56:12.148Z,31.27
2022-09-21T13:01:19.501Z,31.24
2022-09-21T13:06:26.520Z,31.15
2022-09-21T13:11:33.756Z,31.56
2022-09-21T13:16:41.030Z,30.91
2022-09-21T13:21:48.125Z,31.16
2022-09-21T13:26:55.385Z,31.06
2022-09-21T13:32:02.640Z,31.01
2022-09-21T13:37:09.850Z,30.87
2022-09-21T13:42:17.009Z,31.08
2022-09-21T13:47:24.214Z,30.90
2022-09-21T13:52:31.444Z,30.64
2022-09-21T13:57:38.656Z,30.31
2022-09-21T14:02:45.895Z,30.88
2022-09-21T14:07:52.972Z,30.73
2022-09-21T14:13:00.167Z,30.23
2022-09-21T14:18:07.376Z,30.77
2022-09-21T14:23:14.589Z,30.60
2022-09-21T14:28:21.848Z,30.99
2022-09-21T14:33:29.005Z,31.26
2022-09-21T14:38:36.227Z,31.37
2022-09-21T14:43:43.407Z,31.25
2022-09-21T14:48:50.634Z,31.39
2022-09-21T14:53:57.942Z,31.19
2022-09-21T14:59:05.097Z,31.34
2022-09-21T15:04:12.336Z,31.43
2022-09-21T15:09:19.580Z,31.48
2022-09-21T15:14:26.839Z,31.63
2022-09-21T15:19:34.065Z,31.40
2022-09-21T15:24:41.359Z,31.56
2022-09-21T15:29:48.633Z,31.39
2022-09-21T15:34:56.087Z,31.55
2022-09-21T15:40:03.552Z,31.76
2022-09-21T15:45:10.716Z,31.94
2022-09-21T15:50:17.959Z,31.86
2022-09-21T15:55:25.152Z,31.79
2022-09-21T16:00:32.543Z,31.72
2022-09-21T16:05:39.879Z,31.86
2022-09-21T16:10:47.116Z,31.99
2022-09-21T16:15:54.498Z,32.16
2022-09-21T16:21:01.578Z,32.07
2022-09-21T16:26:08.793Z,32.08
2022-09-21T16:31:16.132Z,32.11
2022-09-21T16:36:23.269Z,32.15
2022-09-21T16:41:30.454Z,32.13
2022-09-21T16:46:37.694Z,32.77
2022-09-21T16:51:44.864Z,33.44
2022-09-21T16:56:52.073Z,33.27
2022-09-21T17:01:59.370Z,33.25
2022-09-21T17:07:06.492Z,33.01
2022-09-21T17:12:13.684Z,33.05
2022-09-21T17:17:20.908Z,33.02
2022-09-21T17:22:28.112Z,32.99
2022-09-21T17:27:35.297Z,32.88
2022-09-21T17:32:42.512Z,32.90
2022-09-21T17:37:49.739Z,32.98
2022-09-21T17:42:56.912Z,32.79
2022-09-21T17:48:04.130Z,32.70
2022-09-21T17:53:11.317Z,32.76
2022-09-21T17:58:18.568Z,32.74
2022-09-21T18:03:25.803Z,32.98
2022-09-21T18:08:33.039Z,33.07
2022-09-21T18:13:40.259Z,33.05
2022-09-21T18:18:47.504Z,32.99
2022-09-21T18:23:54.698Z,33.00
2022-09-21T18:29:12.627Z,32.99
2022-09-21T18:34:09.377Z,32.98
2022-09-21T18:39:16.966Z,33.00
2022-09-21T18:44:24.467Z,33.12
2022-09-21T18:49:31.714Z,33.11
2022-09-21T18:54:38.904Z,33.04
2022-09-21T18:59:46.114Z,33.12
2022-09-21T19:04:53.351Z,33.11
2022-09-21T19:10:00.827Z,33.16
2022-09-21T19:15:12.115Z,33.19
2022-09-21T19:20:15.391Z,33.33
2022-09-21T19:25:22.640Z,33.40
2022-09-21T19:30:30.415Z,33.55
2022-09-21T19:35:37.673Z,33.59
2022-09-21T19:40:44.971Z,33.61
2022-09-21T19:45:52.285Z,33.63
2022-09-21T19:50:59.399Z,33.65
2022-09-21T19:56:06.587Z,33.69
2022-09-21T20:01:13.824Z,33.72
2022-09-21T20:06:20.985Z,33.91
2022-09-21T20:11:28.141Z,33.91
2022-09-21T20:16:35.433Z,33.90
2022-09-21T20:21:42.608Z,33.84
2022-09-21T20:26:49.841Z,33.75
2022-09-21T20:31:57.113Z,33.73
2022-09-21T20:37:04.392Z,33.67
2022-09-21T20:42:11.530Z,33.70
2022-09-21T20:47:18.694Z,33.68
2022-09-21T20:52:25.854Z,33.67
2022-09-21T20:57:33.136Z,33.73
2022-09-21T21:02:40.376Z,33.75
2022-09-21T21:07:47.675Z,33.71
2022-09-21T21:12:54.850Z,33.67
2022-09-21T21:18:02.060Z,33.37
2022-09-21T21:23:09.282Z,33.19
2022-09-21T21:28:16.494Z,33.05
2022-09-21T21:33:23.668Z,32.97
2022-09-21T21:38:31.621Z,32.82
2022-09-21T21:43:38.820Z,32.86
2022-09-21T21:48:46.112Z,32.87
2022-09-21T21:53:53.304Z,32.84
2022-09-21T21:59:00.482Z,32.69
2022-09-21T22:04:07.819Z,32.61
2022-09-21T22:09:15.057Z,32.59
2022-09-21T22:14:22.157Z,32.55
2022-09-21T22:19:29.382Z,32.48
2022-09-21T22:24:36.644Z,32.29
2022-09-21T22:29:43.847Z,32.25
2022-09-21T22:34:51.079Z,32.09
2022-09-21T22:39:58.334Z,32.08
2022-09-21T22:45:05.564Z,32.03
2022-09-21T22:50:12.770Z,31.96
2022-09-21T22:55:20.024Z,31.96
2022-09-21T23:00:27.321Z,32.32
2022-09-21T23:05:34.477Z,32.35
2022-09-21T23:10:41.729Z,32.35
2022-09-21T23:15:48.914Z,32.38
2022-09-21T23:20:56.128Z,32.52
2022-09-21T23:26:03.394Z,32.54
2022-09-21T23:31:10.631Z,32.61
2022-09-21T23:36:17.860Z,32.58
2022-09-21T23:41:25.205Z,32.63
2022-09-21T23:46:32.483Z,32.68
2022-09-21T23:51:39.577Z,32.77
2022-09-21T23:56:46.878Z,32.82
